sensor_id;sensor_type;location;lat;lon;timestamp;temperature;humidity
18733;DHT22;9495;51.210;2.934;2022-12-13T00:01:58;-1.10;99.90
18733;DHT22;9495;51.210;2.934;2022-12-13T00:04:27;-1.10;99.90
18733;DHT22;9495;51.210;2.934;2022-12-13T00:06:55;-1.10;99.90
18733;DHT22;9495;51.210;2.934;2022-12-13T00:09:24;-1.20;99.90
18733;DHT22;9495;51.210;2.934;2022-12-13T00:11:52;-1.20;99.90
18733;DHT22;9495;51.210;2.934;2022-12-13T00:14:22;-1.20;99.90
18733;DHT22;9495;51.210;2.934;2022-12-13T00:16:50;-1.20;99.90
18733;DHT22;9495;51.210;2.934;2022-12-13T00:19:19;-1.20;99.90
18733;DHT22;9495;51.210;2.934;2022-12-13T00:21:47;-1.30;99.90
18733;DHT22;9495;51.210;2.934;2022-12-13T00:24:15;-1.30;99.90
18733;DHT22;9495;51.210;2.934;2022-12-13T00:26:44;-1.30;99.90
18733;DHT22;9495;51.210;2.934;2022-12-13T00:29:12;-1.30;99.90
18733;DHT22;9495;51.210;2.934;2022-12-13T00:31:42;-1.30;99.90
18733;DHT22;9495;51.210;2.934;2022-12-13T00:34:26;-1.40;99.90
18733;DHT22;9495;51.210;2.934;2022-12-13T00:36:55;-1.40;99.90
18733;DHT22;9495;51.210;2.934;2022-12-13T00:39:25;-1.40;99.90
18733;DHT22;9495;51.210;2.934;2022-12-13T00:41:53;-1.40;99.90
18733;DHT22;9495;51.210;2.934;2022-12-13T00:44:22;-1.40;99.90
18733;DHT22;9495;51.210;2.934;2022-12-13T00:46:51;-1.40;99.90
18733;DHT22;9495;51.210;2.934;2022-12-13T00:49:20;-1.40;99.90
18733;DHT22;9495;51.210;2.934;2022-12-13T00:51:49;-1.50;99.90
18733;DHT22;9495;51.210;2.934;2022-12-13T00:54:17;-1.50;99.90
18733;DHT22;9495;51.210;2.934;2022-12-13T00:56:46;-1.50;99.90
18733;DHT22;9495;51.210;2.934;2022-12-13T00:59:15;-1.50;99.90
18733;DHT22;9495;51.210;2.934;2022-12-13T01:01:43;-1.50;99.90
18733;DHT22;9495;51.210;2.934;2022-12-13T01:04:14;-1.60;99.90
18733;DHT22;9495;51.210;2.934;2022-12-13T01:06:44;-1.60;99.90
18733;DHT22;9495;51.210;2.934;2022-12-13T01:09:15;-1.60;99.90
18733;DHT22;9495;51.210;2.934;2022-12-13T01:11:45;-1.60;99.90
18733;DHT22;9495;51.210;2.934;2022-12-13T01:14:14;-1.60;99.90
18733;DHT22;9495;51.210;2.934;2022-12-13T01:16:42;-1.60;99.90
18733;DHT22;9495;51.210;2.934;2022-12-13T01:19:10;-1.60;99.90
18733;DHT22;9495;51.210;2.934;2022-12-13T01:21:40;-1.60;99.90
18733;DHT22;9495;51.210;2.934;2022-12-13T01:24:08;-1.60;99.90
18733;DHT22;9495;51.210;2.934;2022-12-13T01:26:37;-1.60;99.90
18733;DHT22;9495;51.210;2.934;2022-12-13T01:29:06;-1.70;99.90
18733;DHT22;9495;51.210;2.934;2022-12-13T01:31:35;-1.70;99.90
18733;DHT22;9495;51.210;2.934;2022-12-13T01:34:07;-1.70;99.90
18733;DHT22;9495;51.210;2.934;2022-12-13T01:36:37;-1.70;99.90
18733;DHT22;9495;51.210;2.934;2022-12-13T01:39:09;-1.80;99.90
18733;DHT22;9495;51.210;2.934;2022-12-13T01:41:42;-1.80;99.90
18733;DHT22;9495;51.210;2.934;2022-12-13T01:47:13;-1.90;99.90
18733;DHT22;9495;51.210;2.934;2022-12-13T01:49:43;-1.90;99.90
18733;DHT22;9495;51.210;2.934;2022-12-13T01:52:12;-1.80;99.90
18733;DHT22;9495;51.210;2.934;2022-12-13T01:54:45;-1.80;99.90
18733;DHT22;9495;51.210;2.934;2022-12-13T01:57:17;-1.80;99.90
18733;DHT22;9495;51.210;2.934;2022-12-13T01:59:47;-1.90;99.90
18733;DHT22;9495;51.210;2.934;2022-12-13T02:02:16;-1.90;99.90
18733;DHT22;9495;51.210;2.934;2022-12-13T02:04:51;-1.90;99.90
18733;DHT22;9495;51.210;2.934;2022-12-13T02:07:25;-1.80;99.90
18733;DHT22;9495;51.210;2.934;2022-12-13T02:09:59;-1.80;99.90
18733;DHT22;9495;51.210;2.934;2022-12-13T02:12:30;-1.80;99.90
18733;DHT22;9495;51.210;2.934;2022-12-13T02:14:59;-1.90;99.90
18733;DHT22;9495;51.210;2.934;2022-12-13T02:17:38;-1.90;99.90
18733;DHT22;9495;51.210;2.934;2022-12-13T02:20:37;-2.00;99.90
18733;DHT22;9495;51.210;2.934;2022-12-13T02:23:30;-2.20;99.90
18733;DHT22;9495;51.210;2.934;2022-12-13T02:26:40;-2.30;99.90
18733;DHT22;9495;51.210;2.934;2022-12-13T02:29:31;-2.30;99.90
18733;DHT22;9495;51.210;2.934;2022-12-13T02:32:15;-2.20;99.90
18733;DHT22;9495;51.210;2.934;2022-12-13T02:34:49;-2.00;99.90
18733;DHT22;9495;51.210;2.934;2022-12-13T02:37:22;-1.90;99.90
18733;DHT22;9495;51.210;2.934;2022-12-13T02:39:56;-1.90;99.90
18733;DHT22;9495;51.210;2.934;2022-12-13T02:42:29;-1.90;99.90
18733;DHT22;9495;51.210;2.934;2022-12-13T02:45:04;-2.10;99.90
18733;DHT22;9495;51.210;2.934;2022-12-13T02:47:36;-2.20;99.90
18733;DHT22;9495;51.210;2.934;2022-12-13T02:50:06;-2.20;99.90
18733;DHT22;9495;51.210;2.934;2022-12-13T02:52:36;-2.30;99.90
18733;DHT22;9495;51.210;2.934;2022-12-13T02:55:06;-2.30;99.90
18733;DHT22;9495;51.210;2.934;2022-12-13T02:57:36;-2.30;99.90
18733;DHT22;9495;51.210;2.934;2022-12-13T03:00:07;-2.30;99.90
18733;DHT22;9495;51.210;2.934;2022-12-13T03:02:48;-2.30;99.90
18733;DHT22;9495;51.210;2.934;2022-12-13T03:05:26;-2.40;99.90
18733;DHT22;9495;51.210;2.934;2022-12-13T03:08:21;-2.40;99.90
18733;DHT22;9495;51.210;2.934;2022-12-13T03:10:57;-2.40;99.90
18733;DHT22;9495;51.210;2.934;2022-12-13T03:13:33;-2.40;99.90
18733;DHT22;9495;51.210;2.934;2022-12-13T03:16:21;-2.50;99.90
18733;DHT22;9495;51.210;2.934;2022-12-13T03:18:55;-2.50;99.90
18733;DHT22;9495;51.210;2.934;2022-12-13T03:21:25;-2.40;99.90
18733;DHT22;9495;51.210;2.934;2022-12-13T03:23:53;-2.50;99.90
18733;DHT22;9495;51.210;2.934;2022-12-13T03:26:24;-2.50;99.90
18733;DHT22;9495;51.210;2.934;2022-12-13T03:28:53;-2.50;99.90
18733;DHT22;9495;51.210;2.934;2022-12-13T03:31:22;-2.60;99.90
18733;DHT22;9495;51.210;2.934;2022-12-13T03:33:51;-2.60;99.90
18733;DHT22;9495;51.210;2.934;2022-12-13T03:36:20;-2.60;99.90
18733;DHT22;9495;51.210;2.934;2022-12-13T03:38:50;-2.60;99.90
18733;DHT22;9495;51.210;2.934;2022-12-13T03:41:22;-2.70;99.90
18733;DHT22;9495;51.210;2.934;2022-12-13T03:43:57;-2.50;99.90
18733;DHT22;9495;51.210;2.934;2022-12-13T03:46:26;-2.60;99.90
18733;DHT22;9495;51.210;2.934;2022-12-13T03:48:55;-2.60;99.90
18733;DHT22;9495;51.210;2.934;2022-12-13T03:51:24;-2.50;99.90
18733;DHT22;9495;51.210;2.934;2022-12-13T03:53:52;-2.60;99.90
18733;DHT22;9495;51.210;2.934;2022-12-13T03:56:21;-2.50;99.90
18733;DHT22;9495;51.210;2.934;2022-12-13T03:58:49;-2.60;99.90
18733;DHT22;9495;51.210;2.934;2022-12-13T04:01:17;-2.60;99.90
18733;DHT22;9495;51.210;2.934;2022-12-13T04:03:46;-2.70;99.90
18733;DHT22;9495;51.210;2.934;2022-12-13T04:06:16;-2.60;99.90
18733;DHT22;9495;51.210;2.934;2022-12-13T04:08:49;-2.70;99.90
18733;DHT22;9495;51.210;2.934;2022-12-13T04:11:18;-2.70;99.90
18733;DHT22;9495;51.210;2.934;2022-12-13T04:14:09;-2.70;99.90
18733;DHT22;9495;51.210;2.934;2022-12-13T04:16:38;-2.70;99.90
18733;DHT22;9495;51.210;2.934;2022-12-13T04:19:06;-2.70;99.90
18733;DHT22;9495;51.210;2.934;2022-12-13T04:21:36;-2.60;99.90
18733;DHT22;9495;51.210;2.934;2022-12-13T04:24:04;-2.60;99.90
18733;DHT22;9495;51.210;2.934;2022-12-13T04:26:33;-2.60;99.90
18733;DHT22;9495;51.210;2.934;2022-12-13T04:29:01;-2.70;99.90
18733;DHT22;9495;51.210;2.934;2022-12-13T04:31:29;-2.70;99.90
18733;DHT22;9495;51.210;2.934;2022-12-13T04:33:58;-2.80;99.90
18733;DHT22;9495;51.210;2.934;2022-12-13T04:36:27;-2.80;99.90
18733;DHT22;9495;51.210;2.934;2022-12-13T04:39:00;-2.80;99.90
18733;DHT22;9495;51.210;2.934;2022-12-13T04:41:33;-2.70;99.90
18733;DHT22;9495;51.210;2.934;2022-12-13T04:44:03;-2.80;99.90
18733;DHT22;9495;51.210;2.934;2022-12-13T04:46:52;-2.80;99.90
18733;DHT22;9495;51.210;2.934;2022-12-13T04:49:27;-2.80;99.90
18733;DHT22;9495;51.210;2.934;2022-12-13T04:51:55;-2.90;99.90
18733;DHT22;9495;51.210;2.934;2022-12-13T04:54:29;-2.90;99.90
18733;DHT22;9495;51.210;2.934;2022-12-13T04:57:04;-2.80;99.90
18733;DHT22;9495;51.210;2.934;2022-12-13T04:59:32;-2.80;99.90
18733;DHT22;9495;51.210;2.934;2022-12-13T05:02:01;-2.80;99.90
18733;DHT22;9495;51.210;2.934;2022-12-13T05:04:29;-2.70;99.90
18733;DHT22;9495;51.210;2.934;2022-12-13T05:06:59;-2.80;99.90
18733;DHT22;9495;51.210;2.934;2022-12-13T05:09:29;-2.70;99.90
18733;DHT22;9495;51.210;2.934;2022-12-13T05:11:58;-2.90;99.90
18733;DHT22;9495;51.210;2.934;2022-12-13T05:14:28;-2.80;99.90
18733;DHT22;9495;51.210;2.934;2022-12-13T05:16:57;-2.80;99.90
18733;DHT22;9495;51.210;2.934;2022-12-13T05:19:25;-2.90;99.90
18733;DHT22;9495;51.210;2.934;2022-12-13T05:21:57;-2.90;99.90
18733;DHT22;9495;51.210;2.934;2022-12-13T05:24:30;-2.90;99.90
18733;DHT22;9495;51.210;2.934;2022-12-13T05:26:58;-2.80;99.90
18733;DHT22;9495;51.210;2.934;2022-12-13T05:29:47;-2.80;99.90
18733;DHT22;9495;51.210;2.934;2022-12-13T05:32:15;-2.70;99.90
18733;DHT22;9495;51.210;2.934;2022-12-13T05:34:44;-2.80;99.90
18733;DHT22;9495;51.210;2.934;2022-12-13T05:37:12;-2.70;99.90
18733;DHT22;9495;51.210;2.934;2022-12-13T05:39:42;-2.60;99.90
18733;DHT22;9495;51.210;2.934;2022-12-13T05:42:10;-2.60;99.90
18733;DHT22;9495;51.210;2.934;2022-12-13T05:44:38;-2.60;99.90
18733;DHT22;9495;51.210;2.934;2022-12-13T05:47:07;-2.70;99.90
18733;DHT22;9495;51.210;2.934;2022-12-13T05:49:35;-2.80;99.90
18733;DHT22;9495;51.210;2.934;2022-12-13T05:52:05;-2.80;99.90
18733;DHT22;9495;51.210;2.934;2022-12-13T05:54:34;-2.80;99.90
18733;DHT22;9495;51.210;2.934;2022-12-13T05:57:10;-2.80;99.90
18733;DHT22;9495;51.210;2.934;2022-12-13T05:59:38;-2.70;99.90
18733;DHT22;9495;51.210;2.934;2022-12-13T06:02:07;-2.70;99.90
18733;DHT22;9495;51.210;2.934;2022-12-13T06:04:36;-2.70;99.90
18733;DHT22;9495;51.210;2.934;2022-12-13T06:07:04;-2.60;99.90
18733;DHT22;9495;51.210;2.934;2022-12-13T06:09:33;-2.60;99.90
18733;DHT22;9495;51.210;2.934;2022-12-13T06:12:06;-2.50;99.90
18733;DHT22;9495;51.210;2.934;2022-12-13T06:14:57;-2.50;99.90
18733;DHT22;9495;51.210;2.934;2022-12-13T06:17:29;-2.50;99.90
18733;DHT22;9495;51.210;2.934;2022-12-13T06:19:58;-2.50;99.90
18733;DHT22;9495;51.210;2.934;2022-12-13T06:22:26;-2.50;99.90
18733;DHT22;9495;51.210;2.934;2022-12-13T06:24:55;-2.50;99.90
18733;DHT22;9495;51.210;2.934;2022-12-13T06:27:23;-2.40;99.90
18733;DHT22;9495;51.210;2.934;2022-12-13T06:29:52;-2.40;99.90
18733;DHT22;9495;51.210;2.934;2022-12-13T06:32:25;-2.40;99.90
18733;DHT22;9495;51.210;2.934;2022-12-13T06:34:54;-2.40;99.90
18733;DHT22;9495;51.210;2.934;2022-12-13T06:37:23;-2.40;99.90
18733;DHT22;9495;51.210;2.934;2022-12-13T06:39:51;-2.40;99.90
18733;DHT22;9495;51.210;2.934;2022-12-13T06:42:20;-2.50;99.90
18733;DHT22;9495;51.210;2.934;2022-12-13T06:44:48;-2.40;99.90
18733;DHT22;9495;51.210;2.934;2022-12-13T06:47:22;-2.40;99.90
18733;DHT22;9495;51.210;2.934;2022-12-13T06:49:59;-2.40;99.90
18733;DHT22;9495;51.210;2.934;2022-12-13T06:52:31;-2.40;99.90
18733;DHT22;9495;51.210;2.934;2022-12-13T06:55:00;-2.40;99.90
18733;DHT22;9495;51.210;2.934;2022-12-13T06:57:31;-2.30;99.90
18733;DHT22;9495;51.210;2.934;2022-12-13T06:59:59;-2.30;99.90
18733;DHT22;9495;51.210;2.934;2022-12-13T07:02:29;-2.20;99.90
18733;DHT22;9495;51.210;2.934;2022-12-13T07:05:00;-2.30;99.90
18733;DHT22;9495;51.210;2.934;2022-12-13T07:07:28;-2.30;99.90
18733;DHT22;9495;51.210;2.934;2022-12-13T07:09:57;-2.20;99.90
18733;DHT22;9495;51.210;2.934;2022-12-13T07:12:25;-2.20;99.90
18733;DHT22;9495;51.210;2.934;2022-12-13T07:14:54;-2.20;99.90
18733;DHT22;9495;51.210;2.934;2022-12-13T07:17:22;-2.10;99.90
18733;DHT22;9495;51.210;2.934;2022-12-13T07:20:03;-2.10;99.90
18733;DHT22;9495;51.210;2.934;2022-12-13T07:22:35;-2.00;99.90
18733;DHT22;9495;51.210;2.934;2022-12-13T07:25:13;-1.90;99.90
18733;DHT22;9495;51.210;2.934;2022-12-13T07:27:58;-2.00;99.90
18733;DHT22;9495;51.210;2.934;2022-12-13T07:30:28;-2.00;99.90
18733;DHT22;9495;51.210;2.934;2022-12-13T07:32:57;-2.00;99.90
18733;DHT22;9495;51.210;2.934;2022-12-13T07:35:27;-2.00;99.90
18733;DHT22;9495;51.210;2.934;2022-12-13T07:37:55;-2.00;99.90
18733;DHT22;9495;51.210;2.934;2022-12-13T07:40:24;-2.00;99.90
18733;DHT22;9495;51.210;2.934;2022-12-13T07:42:53;-2.00;99.90
18733;DHT22;9495;51.210;2.934;2022-12-13T07:45:22;-2.00;99.90
18733;DHT22;9495;51.210;2.934;2022-12-13T07:47:51;-2.00;99.90
18733;DHT22;9495;51.210;2.934;2022-12-13T07:50:19;-1.90;99.90
18733;DHT22;9495;51.210;2.934;2022-12-13T07:52:52;-1.90;99.90
18733;DHT22;9495;51.210;2.934;2022-12-13T07:55:21;-1.90;99.90
18733;DHT22;9495;51.210;2.934;2022-12-13T07:58:03;-1.90;99.90
18733;DHT22;9495;51.210;2.934;2022-12-13T08:00:32;-1.90;99.90
18733;DHT22;9495;51.210;2.934;2022-12-13T08:03:00;-2.00;99.90
18733;DHT22;9495;51.210;2.934;2022-12-13T08:05:29;-2.00;99.90
18733;DHT22;9495;51.210;2.934;2022-12-13T08:08:07;-2.00;99.90
18733;DHT22;9495;51.210;2.934;2022-12-13T08:10:38;-2.00;99.90
18733;DHT22;9495;51.210;2.934;2022-12-13T08:13:06;-2.00;99.90
18733;DHT22;9495;51.210;2.934;2022-12-13T08:15:35;-2.00;99.90
18733;DHT22;9495;51.210;2.934;2022-12-13T08:18:03;-1.90;99.90
18733;DHT22;9495;51.210;2.934;2022-12-13T08:20:32;-1.90;99.90
18733;DHT22;9495;51.210;2.934;2022-12-13T08:23:01;-1.90;99.90
18733;DHT22;9495;51.210;2.934;2022-12-13T08:25:30;-1.90;99.90
18733;DHT22;9495;51.210;2.934;2022-12-13T08:27:59;-1.90;99.90
18733;DHT22;9495;51.210;2.934;2022-12-13T08:30:29;-1.80;99.90
18733;DHT22;9495;51.210;2.934;2022-12-13T08:32:58;-1.80;99.90
18733;DHT22;9495;51.210;2.934;2022-12-13T08:35:31;-1.70;99.90
18733;DHT22;9495;51.210;2.934;2022-12-13T08:38:01;-1.80;99.90
18733;DHT22;9495;51.210;2.934;2022-12-13T08:40:31;-1.70;99.90
18733;DHT22;9495;51.210;2.934;2022-12-13T08:43:01;-1.70;99.90
18733;DHT22;9495;51.210;2.934;2022-12-13T08:45:29;-1.70;99.90
18733;DHT22;9495;51.210;2.934;2022-12-13T08:48:00;-1.60;99.90
18733;DHT22;9495;51.210;2.934;2022-12-13T08:50:29;-1.60;99.90
18733;DHT22;9495;51.210;2.934;2022-12-13T08:52:58;-1.60;99.90
18733;DHT22;9495;51.210;2.934;2022-12-13T08:55:26;-1.50;99.90
18733;DHT22;9495;51.210;2.934;2022-12-13T08:58:03;-1.50;99.90
18733;DHT22;9495;51.210;2.934;2022-12-13T09:00:34;-1.40;99.90
18733;DHT22;9495;51.210;2.934;2022-12-13T09:03:03;-1.40;99.90
18733;DHT22;9495;51.210;2.934;2022-12-13T09:05:36;-1.30;99.90
18733;DHT22;9495;51.210;2.934;2022-12-13T09:08:05;-1.30;99.90
18733;DHT22;9495;51.210;2.934;2022-12-13T09:10:58;-1.20;99.90
18733;DHT22;9495;51.210;2.934;2022-12-13T09:13:29;0.00;99.90
18733;DHT22;9495;51.210;2.934;2022-12-13T09:16:03;-0.10;99.90
18733;DHT22;9495;51.210;2.934;2022-12-13T09:18:48;-0.60;99.90
18733;DHT22;9495;51.210;2.934;2022-12-13T09:21:22;-0.80;99.90
18733;DHT22;9495;51.210;2.934;2022-12-13T09:23:58;-0.90;99.90
18733;DHT22;9495;51.210;2.934;2022-12-13T09:26:28;-1.00;99.90
18733;DHT22;9495;51.210;2.934;2022-12-13T09:29:05;-0.90;99.90
18733;DHT22;9495;51.210;2.934;2022-12-13T09:31:37;-0.80;99.90
18733;DHT22;9495;51.210;2.934;2022-12-13T09:34:07;-0.70;99.90
18733;DHT22;9495;51.210;2.934;2022-12-13T09:36:36;-0.80;99.90
18733;DHT22;9495;51.210;2.934;2022-12-13T09:39:04;-0.80;99.90
18733;DHT22;9495;51.210;2.934;2022-12-13T09:41:35;-0.70;99.90
18733;DHT22;9495;51.210;2.934;2022-12-13T09:44:13;-0.60;99.90
18733;DHT22;9495;51.210;2.934;2022-12-13T09:47:11;-0.60;99.90
18733;DHT22;9495;51.210;2.934;2022-12-13T09:49:49;-0.50;99.90
18733;DHT22;9495;51.210;2.934;2022-12-13T09:52:21;-0.40;99.90
18733;DHT22;9495;51.210;2.934;2022-12-13T09:54:53;-0.40;99.90
18733;DHT22;9495;51.210;2.934;2022-12-13T09:57:25;-0.30;99.90
18733;DHT22;9495;51.210;2.934;2022-12-13T10:00:03;-0.20;99.90
18733;DHT22;9495;51.210;2.934;2022-12-13T10:02:38;-0.10;99.90
18733;DHT22;9495;51.210;2.934;2022-12-13T10:05:18;0.10;99.90
18733;DHT22;9495;51.210;2.934;2022-12-13T10:07:50;0.10;99.90
18733;DHT22;9495;51.210;2.934;2022-12-13T10:10:19;0.20;99.90
18733;DHT22;9495;51.210;2.934;2022-12-13T10:12:53;0.30;99.90
18733;DHT22;9495;51.210;2.934;2022-12-13T10:15:25;0.60;99.90
18733;DHT22;9495;51.210;2.934;2022-12-13T10:17:54;1.70;99.90
18733;DHT22;9495;51.210;2.934;2022-12-13T10:20:25;1.30;99.90
18733;DHT22;9495;51.210;2.934;2022-12-13T10:22:55;0.90;99.90
18733;DHT22;9495;51.210;2.934;2022-12-13T10:25:47;1.00;99.90
18733;DHT22;9495;51.210;2.934;2022-12-13T10:28:24;0.90;99.90
18733;DHT22;9495;51.210;2.934;2022-12-13T10:30:56;0.50;99.90
18733;DHT22;9495;51.210;2.934;2022-12-13T10:33:27;0.40;99.90
18733;DHT22;9495;51.210;2.934;2022-12-13T10:36:14;0.30;99.90
18733;DHT22;9495;51.210;2.934;2022-12-13T10:38:48;0.30;99.90
18733;DHT22;9495;51.210;2.934;2022-12-13T10:41:34;0.30;99.90
18733;DHT22;9495;51.210;2.934;2022-12-13T10:44:17;0.20;99.90
18733;DHT22;9495;51.210;2.934;2022-12-13T10:46:57;0.20;99.90
18733;DHT22;9495;51.210;2.934;2022-12-13T10:49:33;0.40;99.90
18733;DHT22;9495;51.210;2.934;2022-12-13T10:52:03;0.10;99.90
18733;DHT22;9495;51.210;2.934;2022-12-13T10:54:33;0.10;99.90
18733;DHT22;9495;51.210;2.934;2022-12-13T10:57:15;0.00;99.90
18733;DHT22;9495;51.210;2.934;2022-12-13T10:59:45;0.10;99.90
18733;DHT22;9495;51.210;2.934;2022-12-13T11:02:33;0.10;99.90
18733;DHT22;9495;51.210;2.934;2022-12-13T11:05:23;0.20;99.90
18733;DHT22;9495;51.210;2.934;2022-12-13T11:07:52;0.40;99.90
18733;DHT22;9495;51.210;2.934;2022-12-13T11:10:27;0.50;99.90
18733;DHT22;9495;51.210;2.934;2022-12-13T11:13:00;0.60;99.90
18733;DHT22;9495;51.210;2.934;2022-12-13T11:15:32;0.60;99.90
18733;DHT22;9495;51.210;2.934;2022-12-13T11:18:06;0.60;99.90
18733;DHT22;9495;51.210;2.934;2022-12-13T11:20:36;0.70;99.90
18733;DHT22;9495;51.210;2.934;2022-12-13T11:23:09;0.70;99.90
18733;DHT22;9495;51.210;2.934;2022-12-13T11:25:43;0.70;99.90
18733;DHT22;9495;51.210;2.934;2022-12-13T11:28:37;0.80;99.90
18733;DHT22;9495;51.210;2.934;2022-12-13T11:31:14;0.80;99.90
18733;DHT22;9495;51.210;2.934;2022-12-13T11:33:53;0.80;99.90
18733;DHT22;9495;51.210;2.934;2022-12-13T11:36:33;0.80;99.90
18733;DHT22;9495;51.210;2.934;2022-12-13T11:39:13;0.90;99.90
18733;DHT22;9495;51.210;2.934;2022-12-13T11:41:48;2.00;99.90
18733;DHT22;9495;51.210;2.934;2022-12-13T11:44:24;1.40;99.90
18733;DHT22;9495;51.210;2.934;2022-12-13T11:46:54;1.10;99.90
18733;DHT22;9495;51.210;2.934;2022-12-13T11:49:34;1.00;99.90
18733;DHT22;9495;51.210;2.934;2022-12-13T11:52:11;1.00;99.90
18733;DHT22;9495;51.210;2.934;2022-12-13T11:54:46;1.00;99.90
18733;DHT22;9495;51.210;2.934;2022-12-13T11:57:25;0.90;99.90
18733;DHT22;9495;51.210;2.934;2022-12-13T12:00:02;1.00;99.90
18733;DHT22;9495;51.210;2.934;2022-12-13T12:02:41;1.00;99.90
18733;DHT22;9495;51.210;2.934;2022-12-13T12:05:23;0.90;99.90
18733;DHT22;9495;51.210;2.934;2022-12-13T12:07:57;0.90;99.90
18733;DHT22;9495;51.210;2.934;2022-12-13T12:10:48;1.00;99.90
18733;DHT22;9495;51.210;2.934;2022-12-13T12:13:20;1.00;99.90
18733;DHT22;9495;51.210;2.934;2022-12-13T12:15:58;1.00;99.90
18733;DHT22;9495;51.210;2.934;2022-12-13T12:18:31;1.00;99.90
18733;DHT22;9495;51.210;2.934;2022-12-13T12:21:11;1.00;99.90
18733;DHT22;9495;51.210;2.934;2022-12-13T12:23:54;1.00;99.90
18733;DHT22;9495;51.210;2.934;2022-12-13T12:26:30;1.10;99.90
18733;DHT22;9495;51.210;2.934;2022-12-13T12:29:26;1.10;99.90
18733;DHT22;9495;51.210;2.934;2022-12-13T12:32:03;1.10;99.90
18733;DHT22;9495;51.210;2.934;2022-12-13T12:34:38;1.10;99.90
18733;DHT22;9495;51.210;2.934;2022-12-13T12:37:16;1.20;99.90
18733;DHT22;9495;51.210;2.934;2022-12-13T12:40:01;1.10;99.90
18733;DHT22;9495;51.210;2.934;2022-12-13T12:42:43;1.10;99.90
18733;DHT22;9495;51.210;2.934;2022-12-13T12:45:46;1.10;99.90
18733;DHT22;9495;51.210;2.934;2022-12-13T12:48:45;1.20;99.90
18733;DHT22;9495;51.210;2.934;2022-12-13T12:51:33;1.10;99.90
18733;DHT22;9495;51.210;2.934;2022-12-13T12:54:19;1.20;99.90
18733;DHT22;9495;51.210;2.934;2022-12-13T12:57:03;1.20;99.90
18733;DHT22;9495;51.210;2.934;2022-12-13T12:59:39;1.30;99.90
18733;DHT22;9495;51.210;2.934;2022-12-13T13:02:17;1.30;99.90
18733;DHT22;9495;51.210;2.934;2022-12-13T13:04:52;1.30;99.90
18733;DHT22;9495;51.210;2.934;2022-12-13T13:07:25;1.30;99.90
18733;DHT22;9495;51.210;2.934;2022-12-13T13:10:07;1.30;99.90
18733;DHT22;9495;51.210;2.934;2022-12-13T13:12:52;1.30;99.90
18733;DHT22;9495;51.210;2.934;2022-12-13T13:15:55;1.30;99.90
18733;DHT22;9495;51.210;2.934;2022-12-13T13:18:43;1.30;99.90
18733;DHT22;9495;51.210;2.934;2022-12-13T13:21:34;1.40;99.90
18733;DHT22;9495;51.210;2.934;2022-12-13T13:24:12;1.40;99.90
18733;DHT22;9495;51.210;2.934;2022-12-13T13:26:44;1.40;99.90
18733;DHT22;9495;51.210;2.934;2022-12-13T13:29:28;1.40;99.90
18733;DHT22;9495;51.210;2.934;2022-12-13T13:31:59;1.40;99.90
18733;DHT22;9495;51.210;2.934;2022-12-13T13:34:30;1.40;99.90
18733;DHT22;9495;51.210;2.934;2022-12-13T13:36:59;1.40;99.90
18733;DHT22;9495;51.210;2.934;2022-12-13T13:39:56;1.30;99.90
18733;DHT22;9495;51.210;2.934;2022-12-13T13:42:28;1.40;99.90
18733;DHT22;9495;51.210;2.934;2022-12-13T13:45:18;1.40;99.90
18733;DHT22;9495;51.210;2.934;2022-12-13T13:48:12;1.30;99.90
18733;DHT22;9495;51.210;2.934;2022-12-13T13:54:25;1.60;99.90
18733;DHT22;9495;51.210;2.934;2022-12-13T13:57:38;1.40;99.90
18733;DHT22;9495;51.210;2.934;2022-12-13T14:01:03;1.30;99.90
18733;DHT22;9495;51.210;2.934;2022-12-13T14:04:08;1.60;99.90
18733;DHT22;9495;51.210;2.934;2022-12-13T14:09:52;1.30;99.90
18733;DHT22;9495;51.210;2.934;2022-12-13T14:19:33;1.30;99.90
18733;DHT22;9495;51.210;2.934;2022-12-13T14:22:21;1.30;99.90
18733;DHT22;9495;51.210;2.934;2022-12-13T14:24:57;1.30;99.90
18733;DHT22;9495;51.210;2.934;2022-12-13T14:27:38;1.20;99.90
18733;DHT22;9495;51.210;2.934;2022-12-13T14:30:12;1.30;99.90
18733;DHT22;9495;51.210;2.934;2022-12-13T14:32:54;1.30;99.90
18733;DHT22;9495;51.210;2.934;2022-12-13T14:35:27;1.30;99.90
18733;DHT22;9495;51.210;2.934;2022-12-13T14:37:56;1.20;99.90
18733;DHT22;9495;51.210;2.934;2022-12-13T14:40:28;1.20;99.90
18733;DHT22;9495;51.210;2.934;2022-12-13T14:42:58;1.20;99.90
18733;DHT22;9495;51.210;2.934;2022-12-13T14:45:28;1.20;99.90
18733;DHT22;9495;51.210;2.934;2022-12-13T14:47:59;1.20;99.90
18733;DHT22;9495;51.210;2.934;2022-12-13T14:50:32;1.20;99.90
18733;DHT22;9495;51.210;2.934;2022-12-13T14:53:01;1.20;99.90
18733;DHT22;9495;51.210;2.934;2022-12-13T14:55:31;1.20;99.90
18733;DHT22;9495;51.210;2.934;2022-12-13T14:58:13;1.20;99.90
18733;DHT22;9495;51.210;2.934;2022-12-13T15:00:42;1.10;99.90
18733;DHT22;9495;51.210;2.934;2022-12-13T15:03:21;1.10;99.90
18733;DHT22;9495;51.210;2.934;2022-12-13T15:05:54;1.10;99.90
18733;DHT22;9495;51.210;2.934;2022-12-13T15:08:23;1.10;99.90
18733;DHT22;9495;51.210;2.934;2022-12-13T15:10:54;1.10;99.90
18733;DHT22;9495;51.210;2.934;2022-12-13T15:13:26;1.10;99.90
18733;DHT22;9495;51.210;2.934;2022-12-13T15:15:58;1.10;99.90
18733;DHT22;9495;51.210;2.934;2022-12-13T15:18:36;1.10;99.90
18733;DHT22;9495;51.210;2.934;2022-12-13T15:21:19;1.10;99.90
18733;DHT22;9495;51.210;2.934;2022-12-13T15:23:48;1.10;99.90
18733;DHT22;9495;51.210;2.934;2022-12-13T15:26:20;1.00;99.90
18733;DHT22;9495;51.210;2.934;2022-12-13T15:28:57;1.00;99.90
18733;DHT22;9495;51.210;2.934;2022-12-13T15:31:27;0.90;99.90
18733;DHT22;9495;51.210;2.934;2022-12-13T15:34:19;0.90;99.90
18733;DHT22;9495;51.210;2.934;2022-12-13T15:36:59;1.00;99.90
18733;DHT22;9495;51.210;2.934;2022-12-13T15:39:28;1.00;99.90
18733;DHT22;9495;51.210;2.934;2022-12-13T15:41:58;0.90;99.90
18733;DHT22;9495;51.210;2.934;2022-12-13T15:44:28;0.90;99.90
18733;DHT22;9495;51.210;2.934;2022-12-13T15:47:00;0.90;99.90
18733;DHT22;9495;51.210;2.934;2022-12-13T15:49:31;0.90;99.90
18733;DHT22;9495;51.210;2.934;2022-12-13T15:52:05;0.90;99.90
18733;DHT22;9495;51.210;2.934;2022-12-13T15:54:34;0.90;99.90
18733;DHT22;9495;51.210;2.934;2022-12-13T15:57:12;0.90;99.90
18733;DHT22;9495;51.210;2.934;2022-12-13T15:59:41;0.90;99.90
18733;DHT22;9495;51.210;2.934;2022-12-13T16:02:15;0.90;99.90
18733;DHT22;9495;51.210;2.934;2022-12-13T16:04:44;0.80;99.90
18733;DHT22;9495;51.210;2.934;2022-12-13T16:07:22;0.80;99.90
18733;DHT22;9495;51.210;2.934;2022-12-13T16:09:52;0.80;99.90
18733;DHT22;9495;51.210;2.934;2022-12-13T16:12:25;0.80;99.90
18733;DHT22;9495;51.210;2.934;2022-12-13T16:15:10;0.80;99.90
18733;DHT22;9495;51.210;2.934;2022-12-13T16:18:04;0.80;99.90
18733;DHT22;9495;51.210;2.934;2022-12-13T16:20:33;0.80;99.90
18733;DHT22;9495;51.210;2.934;2022-12-13T16:23:04;0.80;99.90
18733;DHT22;9495;51.210;2.934;2022-12-13T16:25:35;0.80;99.90
18733;DHT22;9495;51.210;2.934;2022-12-13T16:28:04;0.80;99.90
18733;DHT22;9495;51.210;2.934;2022-12-13T16:30:59;0.80;99.90
18733;DHT22;9495;51.210;2.934;2022-12-13T16:33:29;0.80;99.90
18733;DHT22;9495;51.210;2.934;2022-12-13T16:35:58;0.80;99.90
18733;DHT22;9495;51.210;2.934;2022-12-13T16:38:28;0.80;99.90
18733;DHT22;9495;51.210;2.934;2022-12-13T16:40:59;0.80;99.90
18733;DHT22;9495;51.210;2.934;2022-12-13T16:43:39;0.80;99.90
18733;DHT22;9495;51.210;2.934;2022-12-13T16:46:11;0.80;99.90
18733;DHT22;9495;51.210;2.934;2022-12-13T16:49:01;0.80;99.90
18733;DHT22;9495;51.210;2.934;2022-12-13T16:51:32;0.80;99.90
18733;DHT22;9495;51.210;2.934;2022-12-13T16:54:02;0.80;99.90